sensor_id;sensor_type;location;lat;lon;timestamp;P1;durP1;ratioP1;P2;durP2;ratioP2
2618;SDS011;1319;52.346;13.096;2022-12-28T00:02:00;9.73;;;3.77;;
2618;SDS011;1319;52.346;13.096;2022-12-28T00:04:26;8.30;;;3.40;;
2618;SDS011;1319;52.346;13.096;2022-12-28T00:06:51;5.37;;;3.40;;
2618;SDS011;1319;52.346;13.096;2022-12-28T00:09:17;8.37;;;3.47;;
2618;SDS011;1319;52.346;13.096;2022-12-28T00:11:42;8.90;;;3.57;;
2618;SDS011;1319;52.346;13.096;2022-12-28T00:14:07;4.67;;;3.23;;
2618;SDS011;1319;52.346;13.096;2022-12-28T00:16:37;7.13;;;3.43;;
2618;SDS011;1319;52.346;13.096;2022-12-28T00:19:03;6.30;;;3.13;;
2618;SDS011;1319;52.346;13.096;2022-12-28T00:21:29;8.20;;;3.67;;
2618;SDS011;1319;52.346;13.096;2022-12-28T00:23:55;7.20;;;3.50;;
2618;SDS011;1319;52.346;13.096;2022-12-28T00:26:20;3.80;;;3.00;;
2618;SDS011;1319;52.346;13.096;2022-12-28T00:28:46;6.37;;;3.30;;
2618;SDS011;1319;52.346;13.096;2022-12-28T00:31:12;6.67;;;3.50;;
2618;SDS011;1319;52.346;13.096;2022-12-28T00:33:37;5.37;;;3.20;;
2618;SDS011;1319;52.346;13.096;2022-12-28T00:36:03;9.00;;;3.37;;
2618;SDS011;1319;52.346;13.096;2022-12-28T00:38:29;7.50;;;3.67;;
2618;SDS011;1319;52.346;13.096;2022-12-28T00:40:57;5.17;;;3.33;;
2618;SDS011;1319;52.346;13.096;2022-12-28T00:43:22;7.80;;;3.20;;
2618;SDS011;1319;52.346;13.096;2022-12-28T00:45:48;6.57;;;3.40;;
2618;SDS011;1319;52.346;13.096;2022-12-28T00:48:13;7.93;;;3.03;;
2618;SDS011;1319;52.346;13.096;2022-12-28T00:50:39;7.20;;;3.50;;
2618;SDS011;1319;52.346;13.096;2022-12-28T00:53:04;5.70;;;3.40;;
2618;SDS011;1319;52.346;13.096;2022-12-28T00:55:31;6.23;;;3.20;;
2618;SDS011;1319;52.346;13.096;2022-12-28T00:57:59;6.57;;;3.33;;
2618;SDS011;1319;52.346;13.096;2022-12-28T01:00:25;8.40;;;3.50;;
2618;SDS011;1319;52.346;13.096;2022-12-28T01:02:50;4.83;;;2.83;;
2618;SDS011;1319;52.346;13.096;2022-12-28T01:05:16;3.87;;;3.40;;
2618;SDS011;1319;52.346;13.096;2022-12-28T01:07:41;9.93;;;3.43;;
2618;SDS011;1319;52.346;13.096;2022-12-28T01:10:06;11.60;;;3.43;;
2618;SDS011;1319;52.346;13.096;2022-12-28T01:12:32;5.10;;;3.23;;
2618;SDS011;1319;52.346;13.096;2022-12-28T01:14:57;8.87;;;3.33;;
2618;SDS011;1319;52.346;13.096;2022-12-28T01:17:22;5.03;;;3.30;;
2618;SDS011;1319;52.346;13.096;2022-12-28T01:19:47;9.47;;;3.23;;
2618;SDS011;1319;52.346;13.096;2022-12-28T01:22:13;9.60;;;3.23;;
2618;SDS011;1319;52.346;13.096;2022-12-28T01:24:38;6.47;;;3.57;;
2618;SDS011;1319;52.346;13.096;2022-12-28T01:27:03;7.27;;;3.50;;
2618;SDS011;1319;52.346;13.096;2022-12-28T01:29:29;9.43;;;4.23;;
2618;SDS011;1319;52.346;13.096;2022-12-28T01:31:54;7.00;;;3.50;;
2618;SDS011;1319;52.346;13.096;2022-12-28T01:34:19;5.43;;;3.37;;
2618;SDS011;1319;52.346;13.096;2022-12-28T01:36:44;7.23;;;3.83;;
2618;SDS011;1319;52.346;13.096;2022-12-28T01:39:10;10.33;;;3.70;;
2618;SDS011;1319;52.346;13.096;2022-12-28T01:41:36;4.17;;;3.37;;
2618;SDS011;1319;52.346;13.096;2022-12-28T01:46:31;10.10;;;4.03;;
2618;SDS011;1319;52.346;13.096;2022-12-28T01:49:00;7.97;;;3.87;;
2618;SDS011;1319;52.346;13.096;2022-12-28T01:51:27;8.70;;;3.77;;
2618;SDS011;1319;52.346;13.096;2022-12-28T01:53:54;5.00;;;3.10;;
2618;SDS011;1319;52.346;13.096;2022-12-28T01:56:20;8.07;;;3.30;;
2618;SDS011;1319;52.346;13.096;2022-12-28T01:58:47;10.03;;;3.77;;
2618;SDS011;1319;52.346;13.096;2022-12-28T02:01:12;7.97;;;3.83;;
2618;SDS011;1319;52.346;13.096;2022-12-28T02:03:38;3.87;;;3.43;;
2618;SDS011;1319;52.346;13.096;2022-12-28T02:06:04;7.23;;;3.60;;
2618;SDS011;1319;52.346;13.096;2022-12-28T02:11:05;8.67;;;4.27;;
2618;SDS011;1319;52.346;13.096;2022-12-28T02:13:31;6.60;;;3.43;;
2618;SDS011;1319;52.346;13.096;2022-12-28T02:15:57;7.40;;;3.73;;
2618;SDS011;1319;52.346;13.096;2022-12-28T02:18:22;8.93;;;3.77;;
2618;SDS011;1319;52.346;13.096;2022-12-28T02:37:09;7.63;;;3.87;;
2618;SDS011;1319;52.346;13.096;2022-12-28T02:39:38;11.10;;;4.00;;
2618;SDS011;1319;52.346;13.096;2022-12-28T02:42:05;6.30;;;3.67;;
2618;SDS011;1319;52.346;13.096;2022-12-28T02:44:34;8.93;;;3.70;;
2618;SDS011;1319;52.346;13.096;2022-12-28T02:47:18;10.40;;;3.73;;
2618;SDS011;1319;52.346;13.096;2022-12-28T02:50:02;5.90;;;3.60;;
2618;SDS011;1319;52.346;13.096;2022-12-28T02:52:43;9.90;;;4.00;;
2618;SDS011;1319;52.346;13.096;2022-12-28T02:58:31;8.37;;;4.07;;
2618;SDS011;1319;52.346;13.096;2022-12-28T03:06:13;9.00;;;3.93;;
2618;SDS011;1319;52.346;13.096;2022-12-28T03:09:02;6.07;;;4.17;;
2618;SDS011;1319;52.346;13.096;2022-12-28T03:11:38;7.03;;;4.20;;
2618;SDS011;1319;52.346;13.096;2022-12-28T03:14:05;8.07;;;4.30;;
2618;SDS011;1319;52.346;13.096;2022-12-28T03:16:38;10.10;;;4.37;;
2618;SDS011;1319;52.346;13.096;2022-12-28T03:19:27;8.07;;;4.20;;
2618;SDS011;1319;52.346;13.096;2022-12-28T03:22:12;6.80;;;4.17;;
2618;SDS011;1319;52.346;13.096;2022-12-28T03:24:58;8.37;;;3.97;;
2618;SDS011;1319;52.346;13.096;2022-12-28T03:27:43;6.27;;;3.83;;
2618;SDS011;1319;52.346;13.096;2022-12-28T03:30:28;9.40;;;4.07;;
2618;SDS011;1319;52.346;13.096;2022-12-28T03:33:12;7.30;;;3.40;;
2618;SDS011;1319;52.346;13.096;2022-12-28T03:35:45;7.07;;;3.50;;
2618;SDS011;1319;52.346;13.096;2022-12-28T03:38:13;8.03;;;3.30;;
2618;SDS011;1319;52.346;13.096;2022-12-28T03:40:51;8.10;;;3.90;;
2618;SDS011;1319;52.346;13.096;2022-12-28T03:43:20;5.57;;;3.40;;
2618;SDS011;1319;52.346;13.096;2022-12-28T03:48:33;6.50;;;3.30;;
2618;SDS011;1319;52.346;13.096;2022-12-28T03:51:01;10.27;;;3.57;;
2618;SDS011;1319;52.346;13.096;2022-12-28T03:53:28;9.27;;;3.43;;
2618;SDS011;1319;52.346;13.096;2022-12-28T03:56:11;7.43;;;3.60;;
2618;SDS011;1319;52.346;13.096;2022-12-28T03:58:37;8.33;;;3.53;;
2618;SDS011;1319;52.346;13.096;2022-12-28T04:01:02;10.23;;;3.50;;
2618;SDS011;1319;52.346;13.096;2022-12-28T04:03:27;6.67;;;3.13;;
2618;SDS011;1319;52.346;13.096;2022-12-28T04:05:53;9.67;;;3.53;;
2618;SDS011;1319;52.346;13.096;2022-12-28T04:08:19;7.40;;;3.40;;
2618;SDS011;1319;52.346;13.096;2022-12-28T04:10:44;9.40;;;3.23;;
2618;SDS011;1319;52.346;13.096;2022-12-28T04:13:09;5.97;;;3.17;;
2618;SDS011;1319;52.346;13.096;2022-12-28T04:15:34;7.60;;;3.47;;
2618;SDS011;1319;52.346;13.096;2022-12-28T04:18:00;5.43;;;3.00;;
2618;SDS011;1319;52.346;13.096;2022-12-28T04:20:25;4.80;;;2.97;;
2618;SDS011;1319;52.346;13.096;2022-12-28T04:22:50;6.27;;;3.43;;
2618;SDS011;1319;52.346;13.096;2022-12-28T04:25:16;8.40;;;3.20;;
2618;SDS011;1319;52.346;13.096;2022-12-28T04:27:41;7.07;;;3.20;;
2618;SDS011;1319;52.346;13.096;2022-12-28T04:30:06;4.60;;;2.93;;
2618;SDS011;1319;52.346;13.096;2022-12-28T04:32:31;9.17;;;3.20;;
2618;SDS011;1319;52.346;13.096;2022-12-28T04:34:57;7.47;;;3.10;;
2618;SDS011;1319;52.346;13.096;2022-12-28T04:37:22;5.13;;;3.07;;
2618;SDS011;1319;52.346;13.096;2022-12-28T04:39:47;3.23;;;2.83;;
2618;SDS011;1319;52.346;13.096;2022-12-28T04:42:12;7.30;;;2.50;;
2618;SDS011;1319;52.346;13.096;2022-12-28T04:44:37;5.93;;;3.00;;
2618;SDS011;1319;52.346;13.096;2022-12-28T04:47:03;5.60;;;2.63;;
2618;SDS011;1319;52.346;13.096;2022-12-28T04:49:28;5.83;;;2.80;;
2618;SDS011;1319;52.346;13.096;2022-12-28T04:51:53;5.07;;;2.60;;
2618;SDS011;1319;52.346;13.096;2022-12-28T04:54:18;6.33;;;2.90;;
2618;SDS011;1319;52.346;13.096;2022-12-28T04:56:43;7.07;;;2.53;;
2618;SDS011;1319;52.346;13.096;2022-12-28T04:59:09;6.13;;;2.53;;
2618;SDS011;1319;52.346;13.096;2022-12-28T05:01:34;6.00;;;2.60;;
2618;SDS011;1319;52.346;13.096;2022-12-28T05:04:00;6.33;;;2.50;;
2618;SDS011;1319;52.346;13.096;2022-12-28T05:06:25;2.70;;;2.43;;
2618;SDS011;1319;52.346;13.096;2022-12-28T05:08:51;7.97;;;2.53;;
2618;SDS011;1319;52.346;13.096;2022-12-28T05:11:17;4.80;;;2.63;;
2618;SDS011;1319;52.346;13.096;2022-12-28T05:13:43;7.93;;;2.47;;
2618;SDS011;1319;52.346;13.096;2022-12-28T05:16:10;5.03;;;2.67;;
2618;SDS011;1319;52.346;13.096;2022-12-28T05:18:35;8.83;;;2.47;;
2618;SDS011;1319;52.346;13.096;2022-12-28T05:21:02;6.30;;;2.27;;
2618;SDS011;1319;52.346;13.096;2022-12-28T05:23:28;4.23;;;2.37;;
2618;SDS011;1319;52.346;13.096;2022-12-28T05:25:54;9.57;;;2.60;;
2618;SDS011;1319;52.346;13.096;2022-12-28T05:28:19;9.33;;;2.50;;
2618;SDS011;1319;52.346;13.096;2022-12-28T05:30:44;3.93;;;2.30;;
2618;SDS011;1319;52.346;13.096;2022-12-28T05:33:09;4.43;;;2.13;;
2618;SDS011;1319;52.346;13.096;2022-12-28T05:35:34;4.13;;;2.37;;
2618;SDS011;1319;52.346;13.096;2022-12-28T05:38:00;3.07;;;2.10;;
2618;SDS011;1319;52.346;13.096;2022-12-28T05:40:25;6.43;;;2.50;;
2618;SDS011;1319;52.346;13.096;2022-12-28T05:42:50;5.07;;;2.00;;
2618;SDS011;1319;52.346;13.096;2022-12-28T05:45:15;5.83;;;2.50;;
2618;SDS011;1319;52.346;13.096;2022-12-28T05:47:41;7.97;;;2.50;;
2618;SDS011;1319;52.346;13.096;2022-12-28T05:50:06;5.27;;;2.20;;
2618;SDS011;1319;52.346;13.096;2022-12-28T05:52:31;8.27;;;2.20;;
2618;SDS011;1319;52.346;13.096;2022-12-28T05:54:56;8.07;;;2.10;;
2618;SDS011;1319;52.346;13.096;2022-12-28T05:57:22;6.87;;;2.20;;
2618;SDS011;1319;52.346;13.096;2022-12-28T05:59:47;5.73;;;2.30;;
2618;SDS011;1319;52.346;13.096;2022-12-28T06:02:12;5.70;;;2.10;;
2618;SDS011;1319;52.346;13.096;2022-12-28T06:04:37;4.20;;;2.10;;
2618;SDS011;1319;52.346;13.096;2022-12-28T06:07:02;5.97;;;2.20;;
2618;SDS011;1319;52.346;13.096;2022-12-28T06:09:28;11.83;;;2.10;;
2618;SDS011;1319;52.346;13.096;2022-12-28T06:11:53;6.13;;;2.10;;
2618;SDS011;1319;52.346;13.096;2022-12-28T06:14:18;2.83;;;2.00;;
2618;SDS011;1319;52.346;13.096;2022-12-28T06:16:43;6.30;;;2.13;;
2618;SDS011;1319;52.346;13.096;2022-12-28T06:19:10;3.97;;;2.00;;
2618;SDS011;1319;52.346;13.096;2022-12-28T06:21:37;3.37;;;2.30;;
2618;SDS011;1319;52.346;13.096;2022-12-28T06:24:03;7.07;;;2.30;;
2618;SDS011;1319;52.346;13.096;2022-12-28T06:26:29;4.07;;;2.10;;
2618;SDS011;1319;52.346;13.096;2022-12-28T06:28:55;8.37;;;2.10;;
2618;SDS011;1319;52.346;13.096;2022-12-28T06:31:21;3.93;;;2.30;;
2618;SDS011;1319;52.346;13.096;2022-12-28T06:33:47;7.43;;;2.57;;
2618;SDS011;1319;52.346;13.096;2022-12-28T06:36:14;4.50;;;2.27;;
2618;SDS011;1319;52.346;13.096;2022-12-28T06:38:39;7.27;;;2.83;;
2618;SDS011;1319;52.346;13.096;2022-12-28T06:41:05;5.00;;;2.93;;
2618;SDS011;1319;52.346;13.096;2022-12-28T06:43:31;6.17;;;2.63;;
2618;SDS011;1319;52.346;13.096;2022-12-28T06:45:57;4.60;;;2.67;;
2618;SDS011;1319;52.346;13.096;2022-12-28T06:48:22;6.23;;;2.80;;
2618;SDS011;1319;52.346;13.096;2022-12-28T06:50:54;6.47;;;3.00;;
2618;SDS011;1319;52.346;13.096;2022-12-28T06:53:20;9.17;;;2.80;;
2618;SDS011;1319;52.346;13.096;2022-12-28T06:55:55;6.70;;;2.90;;
2618;SDS011;1319;52.346;13.096;2022-12-28T06:58:21;7.00;;;2.90;;
2618;SDS011;1319;52.346;13.096;2022-12-28T07:00:46;4.97;;;2.93;;
2618;SDS011;1319;52.346;13.096;2022-12-28T07:03:11;4.77;;;2.90;;
2618;SDS011;1319;52.346;13.096;2022-12-28T07:05:36;8.17;;;2.90;;
2618;SDS011;1319;52.346;13.096;2022-12-28T07:08:02;6.87;;;2.93;;
2618;SDS011;1319;52.346;13.096;2022-12-28T07:10:27;7.73;;;2.97;;
2618;SDS011;1319;52.346;13.096;2022-12-28T07:12:52;6.87;;;3.33;;
2618;SDS011;1319;52.346;13.096;2022-12-28T07:15:17;6.83;;;3.47;;
2618;SDS011;1319;52.346;13.096;2022-12-28T07:17:42;11.27;;;3.80;;
2618;SDS011;1319;52.346;13.096;2022-12-28T07:20:08;8.57;;;3.33;;
2618;SDS011;1319;52.346;13.096;2022-12-28T07:22:33;5.97;;;3.13;;
2618;SDS011;1319;52.346;13.096;2022-12-28T07:24:58;9.13;;;3.13;;
2618;SDS011;1319;52.346;13.096;2022-12-28T07:27:23;5.60;;;3.13;;
2618;SDS011;1319;52.346;13.096;2022-12-28T07:29:49;6.70;;;3.43;;
2618;SDS011;1319;52.346;13.096;2022-12-28T07:32:14;7.13;;;3.20;;
2618;SDS011;1319;52.346;13.096;2022-12-28T07:34:39;5.27;;;3.13;;
2618;SDS011;1319;52.346;13.096;2022-12-28T07:37:04;9.50;;;3.50;;
2618;SDS011;1319;52.346;13.096;2022-12-28T07:39:29;7.60;;;3.33;;
2618;SDS011;1319;52.346;13.096;2022-12-28T07:41:55;5.80;;;3.17;;
2618;SDS011;1319;52.346;13.096;2022-12-28T07:44:20;8.60;;;3.50;;
2618;SDS011;1319;52.346;13.096;2022-12-28T07:46:45;7.67;;;3.43;;
2618;SDS011;1319;52.346;13.096;2022-12-28T07:49:10;6.50;;;3.20;;
2618;SDS011;1319;52.346;13.096;2022-12-28T07:51:36;6.77;;;3.43;;
2618;SDS011;1319;52.346;13.096;2022-12-28T07:54:01;9.97;;;3.60;;
2618;SDS011;1319;52.346;13.096;2022-12-28T07:56:27;8.47;;;3.33;;
2618;SDS011;1319;52.346;13.096;2022-12-28T07:58:54;5.30;;;3.10;;
2618;SDS011;1319;52.346;13.096;2022-12-28T08:01:20;5.87;;;2.70;;
2618;SDS011;1319;52.346;13.096;2022-12-28T08:03:46;9.73;;;3.27;;
2618;SDS011;1319;52.346;13.096;2022-12-28T08:06:15;5.90;;;3.50;;
2618;SDS011;1319;52.346;13.096;2022-12-28T08:08:43;7.33;;;3.00;;
2618;SDS011;1319;52.346;13.096;2022-12-28T08:11:10;6.53;;;3.07;;
2618;SDS011;1319;52.346;13.096;2022-12-28T08:13:37;4.63;;;2.87;;
2618;SDS011;1319;52.346;13.096;2022-12-28T08:16:02;7.90;;;3.20;;
2618;SDS011;1319;52.346;13.096;2022-12-28T08:18:28;7.17;;;2.77;;
2618;SDS011;1319;52.346;13.096;2022-12-28T08:20:53;6.17;;;3.17;;
2618;SDS011;1319;52.346;13.096;2022-12-28T08:23:19;4.43;;;2.93;;
2618;SDS011;1319;52.346;13.096;2022-12-28T08:25:44;6.40;;;2.90;;
2618;SDS011;1319;52.346;13.096;2022-12-28T08:28:09;5.67;;;3.30;;
2618;SDS011;1319;52.346;13.096;2022-12-28T08:30:34;11.67;;;3.70;;
2618;SDS011;1319;52.346;13.096;2022-12-28T08:33:00;6.40;;;3.30;;
2618;SDS011;1319;52.346;13.096;2022-12-28T08:35:25;5.33;;;3.07;;
2618;SDS011;1319;52.346;13.096;2022-12-28T08:37:53;4.47;;;2.50;;
2618;SDS011;1319;52.346;13.096;2022-12-28T08:40:18;5.83;;;3.30;;
2618;SDS011;1319;52.346;13.096;2022-12-28T08:42:43;5.17;;;2.63;;
2618;SDS011;1319;52.346;13.096;2022-12-28T08:45:09;8.03;;;3.53;;
2618;SDS011;1319;52.346;13.096;2022-12-28T08:47:34;8.83;;;2.70;;
2618;SDS011;1319;52.346;13.096;2022-12-28T08:49:59;3.97;;;2.40;;
2618;SDS011;1319;52.346;13.096;2022-12-28T08:52:25;5.67;;;2.90;;
2618;SDS011;1319;52.346;13.096;2022-12-28T08:54:51;4.97;;;2.70;;
2618;SDS011;1319;52.346;13.096;2022-12-28T08:57:16;6.77;;;2.70;;
2618;SDS011;1319;52.346;13.096;2022-12-28T08:59:41;3.83;;;2.57;;
2618;SDS011;1319;52.346;13.096;2022-12-28T09:02:08;7.03;;;2.63;;
2618;SDS011;1319;52.346;13.096;2022-12-28T09:04:36;5.17;;;3.17;;
2618;SDS011;1319;52.346;13.096;2022-12-28T09:07:01;3.40;;;2.57;;
2618;SDS011;1319;52.346;13.096;2022-12-28T09:09:26;2.83;;;2.53;;
2618;SDS011;1319;52.346;13.096;2022-12-28T09:11:51;4.17;;;2.80;;
2618;SDS011;1319;52.346;13.096;2022-12-28T09:14:17;4.70;;;2.97;;
2618;SDS011;1319;52.346;13.096;2022-12-28T09:16:42;5.60;;;2.80;;
2618;SDS011;1319;52.346;13.096;2022-12-28T09:19:08;6.23;;;3.40;;
2618;SDS011;1319;52.346;13.096;2022-12-28T09:21:36;8.23;;;2.93;;
2618;SDS011;1319;52.346;13.096;2022-12-28T09:24:02;6.43;;;3.03;;
2618;SDS011;1319;52.346;13.096;2022-12-28T09:26:29;5.20;;;2.93;;
2618;SDS011;1319;52.346;13.096;2022-12-28T09:28:58;6.97;;;3.20;;
2618;SDS011;1319;52.346;13.096;2022-12-28T09:31:25;5.63;;;3.13;;
2618;SDS011;1319;52.346;13.096;2022-12-28T09:33:50;5.03;;;2.80;;
2618;SDS011;1319;52.346;13.096;2022-12-28T09:36:46;4.53;;;2.73;;
2618;SDS011;1319;52.346;13.096;2022-12-28T09:39:11;5.23;;;2.90;;
2618;SDS011;1319;52.346;13.096;2022-12-28T09:49:45;5.40;;;2.60;;
2618;SDS011;1319;52.346;13.096;2022-12-28T09:54:38;3.57;;;2.97;;
2618;SDS011;1319;52.346;13.096;2022-12-28T09:57:03;3.80;;;2.47;;
2618;SDS011;1319;52.346;13.096;2022-12-28T09:59:29;3.07;;;2.60;;
2618;SDS011;1319;52.346;13.096;2022-12-28T10:01:57;3.57;;;2.60;;
2618;SDS011;1319;52.346;13.096;2022-12-28T10:04:25;4.20;;;2.83;;
2618;SDS011;1319;52.346;13.096;2022-12-28T10:06:50;6.13;;;3.23;;
2618;SDS011;1319;52.346;13.096;2022-12-28T10:09:24;2.90;;;2.50;;
2618;SDS011;1319;52.346;13.096;2022-12-28T10:11:51;3.00;;;2.70;;
2618;SDS011;1319;52.346;13.096;2022-12-28T10:14:18;3.37;;;2.77;;
2618;SDS011;1319;52.346;13.096;2022-12-28T10:16:43;3.23;;;2.60;;
2618;SDS011;1319;52.346;13.096;2022-12-28T10:19:10;4.37;;;2.90;;
2618;SDS011;1319;52.346;13.096;2022-12-28T10:21:36;5.10;;;2.80;;
2618;SDS011;1319;52.346;13.096;2022-12-28T10:24:03;3.00;;;2.70;;
2618;SDS011;1319;52.346;13.096;2022-12-28T10:26:29;2.80;;;2.50;;
2618;SDS011;1319;52.346;13.096;2022-12-28T10:28:58;4.60;;;2.60;;
2618;SDS011;1319;52.346;13.096;2022-12-28T10:31:30;4.17;;;2.80;;
2618;SDS011;1319;52.346;13.096;2022-12-28T10:33:56;4.63;;;3.07;;
2618;SDS011;1319;52.346;13.096;2022-12-28T10:36:21;4.10;;;2.77;;
2618;SDS011;1319;52.346;13.096;2022-12-28T10:38:51;2.67;;;2.40;;
2618;SDS011;1319;52.346;13.096;2022-12-28T10:41:18;3.07;;;2.50;;
2618;SDS011;1319;52.346;13.096;2022-12-28T10:43:48;6.10;;;2.70;;
2618;SDS011;1319;52.346;13.096;2022-12-28T10:46:17;3.60;;;2.47;;
2618;SDS011;1319;52.346;13.096;2022-12-28T10:48:49;3.60;;;2.23;;
2618;SDS011;1319;52.346;13.096;2022-12-28T10:51:16;2.73;;;2.50;;
2618;SDS011;1319;52.346;13.096;2022-12-28T10:53:43;2.57;;;2.37;;
2618;SDS011;1319;52.346;13.096;2022-12-28T10:58:36;2.87;;;2.43;;
2618;SDS011;1319;52.346;13.096;2022-12-28T11:03:31;2.47;;;2.10;;
2618;SDS011;1319;52.346;13.096;2022-12-28T11:08:33;3.30;;;2.20;;
2618;SDS011;1319;52.346;13.096;2022-12-28T11:11:00;3.67;;;1.80;;
2618;SDS011;1319;52.346;13.096;2022-12-28T11:13:25;2.50;;;2.03;;
2618;SDS011;1319;52.346;13.096;2022-12-28T11:15:51;3.47;;;2.70;;
2618;SDS011;1319;52.346;13.096;2022-12-28T11:18:16;3.07;;;2.20;;
2618;SDS011;1319;52.346;13.096;2022-12-28T11:20:47;3.27;;;2.10;;
2618;SDS011;1319;52.346;13.096;2022-12-28T11:23:15;3.63;;;2.40;;
2618;SDS011;1319;52.346;13.096;2022-12-28T11:25:42;2.40;;;2.20;;
2618;SDS011;1319;52.346;13.096;2022-12-28T11:28:11;2.10;;;2.00;;
2618;SDS011;1319;52.346;13.096;2022-12-28T11:30:37;5.47;;;2.50;;
2618;SDS011;1319;52.346;13.096;2022-12-28T11:33:02;4.60;;;2.10;;
2618;SDS011;1319;52.346;13.096;2022-12-28T11:35:31;3.77;;;2.37;;
2618;SDS011;1319;52.346;13.096;2022-12-28T11:37:59;3.30;;;2.37;;
2618;SDS011;1319;52.346;13.096;2022-12-28T11:43:55;4.70;;;2.43;;
2618;SDS011;1319;52.346;13.096;2022-12-28T11:45:55;4.30;;;2.90;;
2618;SDS011;1319;52.346;13.096;2022-12-28T11:51:02;2.70;;;2.50;;
2618;SDS011;1319;52.346;13.096;2022-12-28T11:56:09;4.33;;;2.50;;
2618;SDS011;1319;52.346;13.096;2022-12-28T12:09:06;6.13;;;2.77;;
2618;SDS011;1319;52.346;13.096;2022-12-28T12:11:52;2.53;;;2.37;;
2618;SDS011;1319;52.346;13.096;2022-12-28T12:14:26;3.53;;;2.20;;
2618;SDS011;1319;52.346;13.096;2022-12-28T12:16:54;2.10;;;2.00;;
2618;SDS011;1319;52.346;13.096;2022-12-28T12:19:27;3.57;;;2.20;;
2618;SDS011;1319;52.346;13.096;2022-12-28T12:22:16;2.93;;;2.40;;
2618;SDS011;1319;52.346;13.096;2022-12-28T12:27:18;2.07;;;1.93;;
2618;SDS011;1319;52.346;13.096;2022-12-28T12:29:50;2.13;;;2.03;;
2618;SDS011;1319;52.346;13.096;2022-12-28T12:32:20;3.20;;;2.50;;
2618;SDS011;1319;52.346;13.096;2022-12-28T12:34:50;3.67;;;2.13;;
2618;SDS011;1319;52.346;13.096;2022-12-28T12:47:48;2.30;;;2.10;;
2618;SDS011;1319;52.346;13.096;2022-12-28T12:50:18;2.47;;;2.27;;
2618;SDS011;1319;52.346;13.096;2022-12-28T12:53:11;3.70;;;2.30;;
2618;SDS011;1319;52.346;13.096;2022-12-28T13:06:01;2.70;;;2.10;;
2618;SDS011;1319;52.346;13.096;2022-12-28T13:08:39;3.60;;;2.50;;
2618;SDS011;1319;52.346;13.096;2022-12-28T13:11:07;3.50;;;2.40;;
2618;SDS011;1319;52.346;13.096;2022-12-28T13:13:33;2.30;;;2.10;;
2618;SDS011;1319;52.346;13.096;2022-12-28T13:16:01;5.17;;;2.33;;
2618;SDS011;1319;52.346;13.096;2022-12-28T13:18:27;2.67;;;2.00;;
2618;SDS011;1319;52.346;13.096;2022-12-28T13:20:59;2.47;;;2.10;;
2618;SDS011;1319;52.346;13.096;2022-12-28T13:23:26;5.07;;;2.13;;
2618;SDS011;1319;52.346;13.096;2022-12-28T13:25:52;2.90;;;2.20;;
2618;SDS011;1319;52.346;13.096;2022-12-28T13:28:20;2.40;;;2.20;;
2618;SDS011;1319;52.346;13.096;2022-12-28T13:33:26;6.50;;;2.30;;
2618;SDS011;1319;52.346;13.096;2022-12-28T13:38:34;3.00;;;2.20;;
2618;SDS011;1319;52.346;13.096;2022-12-28T13:40:59;4.33;;;2.43;;
2618;SDS011;1319;52.346;13.096;2022-12-28T13:45:54;3.90;;;2.33;;
2618;SDS011;1319;52.346;13.096;2022-12-28T13:48:21;3.63;;;2.70;;
2618;SDS011;1319;52.346;13.096;2022-12-28T13:50:47;3.93;;;2.40;;
2618;SDS011;1319;52.346;13.096;2022-12-28T13:53:15;3.80;;;2.40;;
2618;SDS011;1319;52.346;13.096;2022-12-28T13:55:51;4.43;;;2.30;;
2618;SDS011;1319;52.346;13.096;2022-12-28T13:58:21;5.20;;;2.30;;
2618;SDS011;1319;52.346;13.096;2022-12-28T14:00:48;2.93;;;2.50;;
2618;SDS011;1319;52.346;13.096;2022-12-28T14:03:15;2.53;;;2.33;;
2618;SDS011;1319;52.346;13.096;2022-12-28T14:05:46;4.63;;;2.70;;
2618;SDS011;1319;52.346;13.096;2022-12-28T14:08:13;8.63;;;2.70;;
2618;SDS011;1319;52.346;13.096;2022-12-28T14:10:40;2.53;;;2.33;;
2618;SDS011;1319;52.346;13.096;2022-12-28T14:13:05;3.37;;;2.63;;
2618;SDS011;1319;52.346;13.096;2022-12-28T14:15:31;4.57;;;2.43;;
2618;SDS011;1319;52.346;13.096;2022-12-28T14:17:58;7.20;;;2.60;;
2618;SDS011;1319;52.346;13.096;2022-12-28T14:20:23;4.40;;;2.80;;
2618;SDS011;1319;52.346;13.096;2022-12-28T14:22:48;4.67;;;2.87;;
2618;SDS011;1319;52.346;13.096;2022-12-28T14:25:15;4.53;;;2.63;;
2618;SDS011;1319;52.346;13.096;2022-12-28T14:27:45;3.70;;;2.13;;
2618;SDS011;1319;52.346;13.096;2022-12-28T14:30:24;5.07;;;2.80;;
2618;SDS011;1319;52.346;13.096;2022-12-28T14:32:50;2.50;;;2.30;;
2618;SDS011;1319;52.346;13.096;2022-12-28T14:35:17;4.17;;;2.90;;
2618;SDS011;1319;52.346;13.096;2022-12-28T14:37:43;2.70;;;2.50;;
2618;SDS011;1319;52.346;13.096;2022-12-28T14:40:22;3.63;;;2.60;;
2618;SDS011;1319;52.346;13.096;2022-12-28T14:42:49;3.40;;;2.93;;
2618;SDS011;1319;52.346;13.096;2022-12-28T14:45:48;4.00;;;2.73;;
2618;SDS011;1319;52.346;13.096;2022-12-28T14:50:54;8.07;;;2.60;;
2618;SDS011;1319;52.346;13.096;2022-12-28T14:53:19;6.27;;;2.50;;
2618;SDS011;1319;52.346;13.096;2022-12-28T14:58:14;5.40;;;2.73;;
2618;SDS011;1319;52.346;13.096;2022-12-28T15:00:51;3.53;;;2.53;;
2618;SDS011;1319;52.346;13.096;2022-12-28T15:03:18;2.47;;;2.27;;
2618;SDS011;1319;52.346;13.096;2022-12-28T15:05:45;4.87;;;2.70;;
2618;SDS011;1319;52.346;13.096;2022-12-28T15:08:10;3.97;;;2.50;;
2618;SDS011;1319;52.346;13.096;2022-12-28T15:10:46;5.77;;;2.70;;
2618;SDS011;1319;52.346;13.096;2022-12-28T15:13:13;3.13;;;2.73;;
2618;SDS011;1319;52.346;13.096;2022-12-28T15:15:38;4.23;;;2.73;;
2618;SDS011;1319;52.346;13.096;2022-12-28T15:18:04;7.97;;;2.73;;
2618;SDS011;1319;52.346;13.096;2022-12-28T15:20:29;5.43;;;2.70;;
2618;SDS011;1319;52.346;13.096;2022-12-28T15:22:54;2.90;;;2.57;;
2618;SDS011;1319;52.346;13.096;2022-12-28T15:25:20;4.97;;;2.80;;
2618;SDS011;1319;52.346;13.096;2022-12-28T15:27:49;3.17;;;2.70;;
2618;SDS011;1319;52.346;13.096;2022-12-28T15:30:14;4.70;;;2.60;;
2618;SDS011;1319;52.346;13.096;2022-12-28T15:32:40;4.90;;;2.73;;
2618;SDS011;1319;52.346;13.096;2022-12-28T15:35:05;6.63;;;2.47;;
2618;SDS011;1319;52.346;13.096;2022-12-28T15:37:30;2.90;;;2.60;;
2618;SDS011;1319;52.346;13.096;2022-12-28T15:39:55;5.73;;;2.70;;
2618;SDS011;1319;52.346;13.096;2022-12-28T15:42:21;3.80;;;2.60;;
2618;SDS011;1319;52.346;13.096;2022-12-28T15:44:46;3.03;;;2.43;;
2618;SDS011;1319;52.346;13.096;2022-12-28T15:47:12;4.03;;;2.27;;
2618;SDS011;1319;52.346;13.096;2022-12-28T15:49:37;4.10;;;2.50;;
2618;SDS011;1319;52.346;13.096;2022-12-28T15:52:03;2.70;;;2.50;;
2618;SDS011;1319;52.346;13.096;2022-12-28T15:54:28;2.80;;;2.27;;
2618;SDS011;1319;52.346;13.096;2022-12-28T15:56:53;4.33;;;2.70;;
2618;SDS011;1319;52.346;13.096;2022-12-28T15:59:19;4.40;;;2.57;;
2618;SDS011;1319;52.346;13.096;2022-12-28T16:01:44;5.07;;;2.67;;
2618;SDS011;1319;52.346;13.096;2022-12-28T16:04:10;3.83;;;2.50;;
2618;SDS011;1319;52.346;13.096;2022-12-28T16:06:35;4.73;;;3.07;;
2618;SDS011;1319;52.346;13.096;2022-12-28T16:09:01;3.80;;;2.50;;
2618;SDS011;1319;52.346;13.096;2022-12-28T16:11:27;4.23;;;2.47;;
2618;SDS011;1319;52.346;13.096;2022-12-28T16:14:01;2.63;;;2.43;;
2618;SDS011;1319;52.346;13.096;2022-12-28T16:16:29;4.07;;;2.30;;
2618;SDS011;1319;52.346;13.096;2022-12-28T16:18:55;3.03;;;2.20;;
2618;SDS011;1319;52.346;13.096;2022-12-28T16:21:26;5.30;;;2.60;;
2618;SDS011;1319;52.346;13.096;2022-12-28T16:23:52;3.90;;;2.53;;
2618;SDS011;1319;52.346;13.096;2022-12-28T16:26:17;2.73;;;2.20;;
2618;SDS011;1319;52.346;13.096;2022-12-28T16:28:42;4.93;;;2.70;;
2618;SDS011;1319;52.346;13.096;2022-12-28T16:31:18;4.27;;;2.57;;
2618;SDS011;1319;52.346;13.096;2022-12-28T16:33:44;6.67;;;2.60;;
2618;SDS011;1319;52.346;13.096;2022-12-28T16:36:10;2.30;;;2.10;;
2618;SDS011;1319;52.346;13.096;2022-12-28T16:38:36;3.77;;;2.20;;
2618;SDS011;1319;52.346;13.096;2022-12-28T16:41:01;4.07;;;2.47;;
2618;SDS011;1319;52.346;13.096;2022-12-28T16:43:26;4.27;;;2.70;;
2618;SDS011;1319;52.346;13.096;2022-12-28T16:45:51;7.40;;;2.70;;
2618;SDS011;1319;52.346;13.096;2022-12-28T16:48:16;5.97;;;2.97;;